createdAt,value
2023-05-22T00:07:05.784Z,18.73
2023-05-22T00:21:56.263Z,18.60
2023-05-22T00:36:48.758Z,18.48
2023-05-22T00:51:41.082Z,18.39
2023-05-22T01:06:32.847Z,18.15
2023-05-22T01:21:36.175Z,17.99
2023-05-22T01:36:33.277Z,18.01
2023-05-22T01:51:33.145Z,17.85
2023-05-22T02:06:29.377Z,17.65
2023-05-22T02:21:21.422Z,17.60
2023-05-22T02:36:14.762Z,17.51
2023-05-22T02:51:06.106Z,17.42
2023-05-22T03:05:59.201Z,17.40
2023-05-22T03:20:53.705Z,17.44
2023-05-22T03:35:46.052Z,17.44
2023-05-22T03:50:38.040Z,17.43
2023-05-22T04:05:29.934Z,17.44
2023-05-22T04:20:23.256Z,17.50
2023-05-22T04:35:16.268Z,17.61
2023-05-22T04:50:09.533Z,17.80
2023-05-22T05:19:54.021Z,18.15
2023-05-22T05:49:40.135Z,18.57
2023-05-22T06:04:32.837Z,18.90
2023-05-22T06:19:26.027Z,19.25
2023-05-22T06:34:18.898Z,19.55
2023-05-22T06:49:11.350Z,19.79
2023-05-22T07:04:07.556Z,20.09
2023-05-22T07:19:04.762Z,20.57
2023-05-22T07:33:58.910Z,20.99
2023-05-22T07:48:53.729Z,21.28
2023-05-22T08:03:45.940Z,21.46
2023-05-22T08:18:38.156Z,21.83
2023-05-22T08:33:33.365Z,22.18
2023-05-22T08:48:26.286Z,22.52
2023-05-22T09:03:19.139Z,22.80
2023-05-22T09:18:12.826Z,23.31
2023-05-22T09:33:09.175Z,23.51
2023-05-22T09:48:01.833Z,23.58
2023-05-22T10:02:58.432Z,23.93
2023-05-22T10:17:54.028Z,24.09
2023-05-22T10:32:46.982Z,24.34
2023-05-22T10:47:41.175Z,24.71
2023-05-22T11:02:35.015Z,25.15
2023-05-22T11:17:28.506Z,25.57
2023-05-22T11:32:23.024Z,26.10
2023-05-22T11:47:16.804Z,26.75
2023-05-22T12:02:12.623Z,27.26
2023-05-22T12:17:05.983Z,27.65
2023-05-22T12:31:59.789Z,28.31
2023-05-22T12:46:52.884Z,28.57
2023-05-22T13:01:46.743Z,29.02
2023-05-22T13:16:40.859Z,29.39
2023-05-22T13:31:33.755Z,29.72
2023-05-22T13:46:29.204Z,30.44
2023-05-22T14:01:22.324Z,30.83
2023-05-22T14:16:17.338Z,31.40
2023-05-22T14:31:11.294Z,31.86
2023-05-22T14:46:06.248Z,32.68
2023-05-22T15:15:53.805Z,32.93
2023-05-22T15:45:30.746Z,28.76
2023-05-22T16:00:19.725Z,27.97
2023-05-22T16:15:11.622Z,27.12
2023-05-22T16:44:49.723Z,24.11
2023-05-22T18:14:04.319Z,24.09
2023-05-22T18:28:57.302Z,24.04
2023-05-22T18:43:48.180Z,23.60
2023-05-22T18:58:39.668Z,23.21
2023-05-22T19:13:31.804Z,22.94
2023-05-22T19:28:23.118Z,22.80
2023-05-22T19:43:14.903Z,22.68
2023-05-22T19:58:07.181Z,22.43
2023-05-22T20:12:58.703Z,22.25
2023-05-22T20:27:50.189Z,22.03
2023-05-22T20:42:44.789Z,21.82
2023-05-22T20:57:38.733Z,21.64
2023-05-22T21:12:31.365Z,21.36
2023-05-22T21:27:25.325Z,21.19
2023-05-22T21:42:16.335Z,21.02
2023-05-22T21:57:07.943Z,20.91
2023-05-22T22:12:00.531Z,20.77
2023-05-22T22:26:51.995Z,20.83
2023-05-22T22:41:45.164Z,20.83
2023-05-22T22:56:38.516Z,20.89
2023-05-22T23:11:35.545Z,20.84
2023-05-22T23:26:26.416Z,20.79
2023-05-22T23:41:19.411Z,20.69
